createdAt,value
2018-02-20T00:00:57.515Z,23.83
2018-02-20T00:03:25.222Z,21.43
2018-02-20T00:05:52.899Z,26.17
2018-02-20T00:08:20.647Z,25.30
2018-02-20T00:10:48.324Z,27.67
2018-02-20T00:13:16.035Z,24.90
2018-02-20T00:15:43.706Z,27.00
2018-02-20T00:18:11.419Z,25.23
2018-02-20T00:20:39.859Z,27.93
2018-02-20T00:23:07.579Z,28.30
2018-02-20T00:25:35.261Z,27.77
2018-02-20T00:28:02.990Z,28.90
2018-02-20T00:30:31.427Z,28.67
2018-02-20T00:32:59.150Z,24.30
2018-02-20T00:35:26.868Z,26.97
2018-02-20T00:37:54.539Z,27.90
2018-02-20T00:40:23.018Z,28.20
2018-02-20T00:42:51.451Z,22.67
2018-02-20T00:45:19.159Z,27.90
2018-02-20T00:47:47.594Z,28.67
2018-02-20T00:50:15.314Z,27.70
2018-02-20T00:52:42.996Z,27.73
2018-02-20T00:55:10.711Z,25.53
2018-02-20T00:57:39.153Z,28.00
2018-02-20T01:00:06.868Z,25.17
2018-02-20T01:02:34.551Z,28.03
2018-02-20T01:05:02.259Z,30.10
2018-02-20T01:07:29.933Z,27.97
2018-02-20T01:09:58.447Z,25.20
2018-02-20T01:12:26.882Z,26.83
2018-02-20T01:14:55.358Z,28.50
2018-02-20T01:17:23.072Z,25.57
2018-02-20T01:19:50.782Z,28.43
2018-02-20T01:22:19.220Z,27.23
2018-02-20T01:24:46.931Z,25.80
2018-02-20T01:27:15.371Z,25.13
2018-02-20T01:29:43.083Z,23.73
2018-02-20T01:32:10.754Z,29.07
2018-02-20T01:34:38.465Z,29.40
2018-02-20T01:37:06.134Z,24.57
2018-02-20T01:39:34.627Z,28.60
2018-02-20T01:42:03.066Z,20.40
2018-02-20T01:44:30.789Z,29.40
2018-02-20T01:46:58.471Z,23.57
2018-02-20T01:49:26.182Z,20.90
2018-02-20T01:51:54.747Z,21.80
2018-02-20T01:54:22.462Z,24.07
2018-02-20T01:56:50.135Z,25.63
2018-02-20T01:59:17.848Z,24.53
2018-02-20T02:01:46.278Z,24.83
2018-02-20T02:04:13.996Z,25.07
2018-02-20T02:06:41.668Z,25.23
2018-02-20T02:09:13.857Z,23.03
2018-02-20T02:11:41.539Z,27.90
2018-02-20T02:14:09.252Z,21.17
2018-02-20T02:16:36.930Z,25.37
2018-02-20T02:19:04.663Z,20.80
2018-02-20T02:21:32.331Z,26.27
2018-02-20T02:24:00.056Z,27.50
2018-02-20T02:26:28.491Z,26.07
2018-02-20T02:28:56.203Z,26.00
2018-02-20T02:31:24.639Z,20.90
2018-02-20T02:33:52.360Z,23.00
2018-02-20T02:36:20.080Z,26.53
2018-02-20T02:38:47.800Z,29.27
2018-02-20T02:41:15.470Z,25.53
2018-02-20T02:43:43.197Z,26.23
2018-02-20T02:46:10.878Z,23.20
2018-02-20T02:48:38.641Z,24.60
2018-02-20T02:51:06.307Z,24.47
2018-02-20T02:53:33.975Z,27.23
2018-02-20T02:56:01.731Z,20.07
2018-02-20T02:58:29.405Z,22.93
2018-02-20T03:00:57.138Z,25.87
2018-02-20T03:03:24.818Z,20.60
2018-02-20T03:05:52.536Z,31.77
2018-02-20T03:08:20.219Z,23.00
2018-02-20T03:10:47.937Z,23.30
2018-02-20T03:13:16.378Z,20.80
2018-02-20T03:15:44.091Z,24.93
2018-02-20T03:18:11.759Z,25.70
2018-02-20T03:20:39.483Z,24.73
2018-02-20T03:23:07.158Z,25.70
2018-02-20T03:25:35.642Z,25.63
2018-02-20T03:28:04.084Z,24.40
2018-02-20T03:30:31.800Z,26.13
2018-02-20T03:32:59.475Z,22.80
2018-02-20T03:35:27.195Z,24.37
2018-02-20T03:37:55.640Z,27.40
2018-02-20T03:40:23.362Z,20.90
2018-02-20T03:42:51.076Z,25.47
2018-02-20T03:45:18.779Z,22.00
2018-02-20T03:47:46.464Z,26.20
2018-02-20T03:50:14.191Z,25.53
2018-02-20T03:52:41.867Z,27.47
2018-02-20T03:55:09.583Z,23.50
2018-02-20T03:57:37.246Z,27.70
2018-02-20T04:00:05.739Z,26.87
2018-02-20T04:02:34.170Z,21.40
2018-02-20T04:05:01.895Z,24.53
2018-02-20T04:07:29.573Z,23.77
2018-02-20T04:09:57.282Z,26.17
2018-02-20T04:12:25.770Z,27.33
2018-02-20T04:14:54.256Z,22.20
2018-02-20T04:17:21.926Z,24.23
2018-02-20T04:19:49.644Z,21.60
2018-02-20T04:22:17.322Z,21.40
2018-02-20T04:24:45.798Z,24.90
2018-02-20T04:27:14.241Z,23.67
2018-02-20T04:29:41.946Z,26.57
2018-02-20T04:32:10.388Z,27.23
2018-02-20T04:34:38.099Z,27.00
2018-02-20T04:37:05.790Z,26.57
2018-02-20T04:39:33.498Z,25.13
2018-02-20T04:42:01.938Z,22.17
2018-02-20T04:44:29.648Z,23.63
2018-02-20T04:46:57.321Z,24.80
2018-02-20T04:49:25.052Z,24.60
2018-02-20T04:51:53.487Z,25.73
2018-02-20T04:54:21.230Z,25.27
2018-02-20T04:56:49.222Z,28.10
2018-02-20T04:59:16.954Z,24.83
2018-02-20T05:01:44.636Z,29.43
2018-02-20T05:04:12.356Z,25.07
2018-02-20T05:06:40.021Z,25.40
2018-02-20T05:09:07.692Z,33.50
2018-02-20T05:11:35.407Z,25.67
2018-02-20T05:14:03.095Z,28.37
2018-02-20T05:16:30.813Z,24.13
2018-02-20T05:18:58.492Z,22.33
2018-02-20T05:21:26.203Z,24.57
2018-02-20T05:24:11.380Z,22.53
2018-02-20T05:26:39.094Z,25.83
2018-02-20T05:29:07.526Z,24.60
2018-02-20T05:31:36.132Z,30.03
2018-02-20T05:34:03.807Z,26.23
2018-02-20T05:36:32.285Z,24.87
2018-02-20T05:39:00.727Z,24.43
2018-02-20T05:41:28.440Z,25.23
2018-02-20T05:43:56.107Z,24.93
2018-02-20T05:46:23.833Z,31.50
2018-02-20T05:48:51.499Z,26.30
2018-02-20T05:51:19.977Z,24.27
2018-02-20T05:53:48.413Z,27.70
2018-02-20T05:56:16.128Z,27.77
2018-02-20T05:58:43.803Z,27.63
2018-02-20T06:01:11.516Z,28.00
2018-02-20T06:03:39.178Z,28.80
2018-02-20T06:06:06.883Z,27.57
2018-02-20T06:08:34.559Z,25.07
2018-02-20T06:11:02.263Z,30.80
2018-02-20T06:13:29.938Z,26.70
2018-02-20T06:15:58.419Z,26.83
2018-02-20T06:18:26.846Z,29.80
2018-02-20T06:20:54.554Z,26.93
2018-02-20T06:23:22.989Z,28.93
2018-02-20T06:25:50.699Z,31.87
2018-02-20T06:28:19.135Z,30.90
2018-02-20T06:30:46.859Z,31.33
2018-02-20T06:33:14.535Z,32.50
2018-02-20T06:35:42.315Z,25.30
2018-02-20T06:38:09.996Z,23.70
2018-02-20T06:40:37.714Z,27.77
2018-02-20T06:43:05.389Z,26.43
2018-02-20T06:45:33.106Z,25.60
2018-02-20T06:48:00.779Z,26.37
2018-02-20T06:50:28.497Z,31.40
2018-02-20T06:52:56.171Z,27.57
2018-02-20T06:55:24.651Z,27.00
2018-02-20T06:57:53.091Z,28.33
2018-02-20T07:00:20.806Z,29.53
2018-02-20T07:02:48.534Z,24.70
2018-02-20T07:05:16.250Z,27.40
2018-02-20T07:07:43.925Z,25.00
2018-02-20T07:10:11.639Z,29.40
2018-02-20T07:12:40.075Z,24.67
2018-02-20T07:15:07.799Z,27.77
2018-02-20T07:17:35.538Z,22.90
2018-02-20T07:20:04.079Z,28.37
2018-02-20T07:22:31.765Z,28.93
2018-02-20T07:25:00.242Z,25.60
2018-02-20T07:27:28.691Z,28.00
2018-02-20T07:29:56.411Z,31.97
2018-02-20T07:32:24.091Z,26.57
2018-02-20T07:34:51.802Z,28.83
2018-02-20T07:37:20.264Z,24.63
2018-02-20T07:39:48.003Z,28.63
2018-02-20T07:42:15.678Z,29.47
2018-02-20T07:44:43.355Z,26.43
2018-02-20T07:47:11.846Z,27.40
2018-02-20T07:49:40.294Z,24.20
2018-02-20T07:52:08.062Z,33.53
2018-02-20T07:54:35.741Z,29.27
2018-02-20T07:57:04.230Z,27.73
2018-02-20T07:59:31.910Z,34.00
2018-02-20T08:01:59.626Z,26.83
2018-02-20T08:04:27.298Z,25.80
2018-02-20T08:06:55.780Z,34.20
2018-02-20T08:09:24.223Z,27.67
2018-02-20T08:11:51.948Z,32.67
2018-02-20T08:14:19.630Z,41.87
2018-02-20T08:16:48.112Z,33.57
2018-02-20T08:19:15.789Z,32.80
2018-02-20T08:21:43.502Z,27.97
2018-02-20T08:24:11.198Z,31.37
2018-02-20T08:26:38.922Z,25.17
2018-02-20T08:29:06.591Z,32.40
2018-02-20T08:31:34.307Z,27.17
2018-02-20T08:34:02.750Z,28.97
2018-02-20T08:36:30.487Z,29.50
2018-02-20T08:38:58.154Z,29.60
2018-02-20T08:41:25.859Z,30.10
2018-02-20T08:43:53.523Z,34.90
2018-02-20T08:46:22.003Z,26.70
2018-02-20T08:48:50.445Z,27.87
2018-02-20T08:51:18.172Z,29.03
2018-02-20T08:53:45.912Z,28.37
2018-02-20T08:56:14.390Z,32.03
2018-02-20T08:58:42.829Z,25.07
2018-02-20T09:01:10.540Z,28.87
2018-02-20T09:03:38.219Z,26.30
2018-02-20T09:06:05.939Z,26.53
2018-02-20T09:08:34.375Z,28.40
2018-02-20T09:11:02.091Z,24.23
2018-02-20T09:13:29.758Z,30.53
2018-02-20T09:15:57.490Z,29.83
2018-02-20T09:18:25.937Z,27.20
2018-02-20T09:20:53.683Z,30.63
2018-02-20T09:23:21.355Z,26.67
2018-02-20T09:25:49.062Z,27.10
2018-02-20T09:28:17.498Z,26.63
2018-02-20T09:30:45.345Z,26.93
2018-02-20T09:33:13.011Z,29.50
2018-02-20T09:35:40.732Z,32.60
2018-02-20T09:38:08.415Z,29.17
2018-02-20T09:40:36.142Z,25.90
2018-02-20T09:43:04.582Z,31.80
2018-02-20T09:45:32.300Z,27.50
2018-02-20T09:48:00.027Z,26.97
2018-02-20T09:50:27.731Z,33.50
2018-02-20T09:52:55.406Z,29.67
2018-02-20T09:55:23.114Z,28.17
2018-02-20T09:57:51.552Z,34.17
2018-02-20T10:00:19.263Z,37.87
2018-02-20T10:02:47.693Z,29.60
2018-02-20T10:05:15.371Z,31.60
2018-02-20T10:07:43.095Z,32.30
2018-02-20T10:10:10.768Z,29.70
2018-02-20T10:12:38.480Z,32.17
2018-02-20T10:15:06.915Z,32.17
2018-02-20T10:17:34.643Z,33.60
2018-02-20T10:20:02.316Z,34.80
2018-02-20T10:22:30.028Z,27.53
2018-02-20T10:24:58.459Z,33.20
2018-02-20T10:27:26.165Z,33.40
2018-02-20T10:29:54.600Z,30.17
2018-02-20T10:32:22.312Z,27.63
2018-02-20T10:34:50.750Z,33.93
2018-02-20T10:37:18.491Z,39.63
2018-02-20T10:39:46.213Z,27.97
2018-02-20T10:42:13.899Z,29.80
2018-02-20T10:44:41.580Z,35.33
2018-02-20T10:47:09.287Z,28.10
2018-02-20T10:49:37.716Z,32.57
2018-02-20T10:52:05.428Z,30.10
2018-02-20T10:54:33.854Z,32.80
2018-02-20T10:57:01.570Z,30.33
2018-02-20T10:59:29.235Z,36.90
2018-02-20T11:01:56.959Z,30.90
2018-02-20T11:04:24.622Z,30.27
2018-02-20T11:06:52.327Z,33.30
2018-02-20T11:09:19.995Z,30.33
2018-02-20T11:11:47.712Z,31.43
2018-02-20T11:14:16.150Z,43.17
2018-02-20T11:16:44.390Z,35.27
2018-02-20T11:19:11.565Z,34.30
2018-02-20T11:21:39.270Z,39.10
2018-02-20T11:24:07.703Z,33.00
2018-02-20T11:26:35.476Z,32.73
2018-02-20T11:29:03.157Z,29.00
2018-02-20T11:31:30.867Z,31.37
2018-02-20T11:33:58.531Z,28.93
2018-02-20T11:36:26.246Z,37.30
2018-02-20T11:38:53.911Z,35.43
2018-02-20T11:41:22.388Z,33.53
2018-02-20T11:43:51.107Z,33.40
2018-02-20T11:46:18.825Z,38.70
2018-02-20T11:48:46.495Z,36.67
2018-02-20T11:51:14.973Z,38.93
2018-02-20T11:53:43.403Z,32.33
2018-02-20T11:56:11.112Z,35.80
2018-02-20T11:58:39.555Z,48.70
2018-02-20T12:01:07.292Z,41.27
2018-02-20T12:03:34.968Z,29.97
2018-02-20T12:06:02.670Z,31.00
2018-02-20T12:08:31.143Z,38.77
2018-02-20T12:10:59.627Z,29.00
2018-02-20T12:13:28.065Z,28.93
2018-02-20T12:15:55.826Z,32.10
2018-02-20T12:18:23.488Z,30.10
2018-02-20T12:20:51.232Z,27.03
2018-02-20T12:23:18.907Z,28.83
2018-02-20T12:25:46.582Z,27.03
2018-02-20T12:28:14.371Z,29.90
2018-02-20T12:30:42.806Z,30.00
2018-02-20T12:33:10.512Z,29.23
2018-02-20T12:35:38.944Z,29.80
2018-02-20T12:38:06.646Z,27.60
2018-02-20T12:40:35.077Z,31.80
2018-02-20T12:43:02.782Z,31.20
2018-02-20T12:45:31.211Z,34.57
2018-02-20T12:47:58.926Z,31.50
2018-02-20T12:50:26.625Z,29.77
2018-02-20T12:52:54.335Z,27.70
2018-02-20T12:55:22.811Z,33.23
2018-02-20T12:57:51.291Z,31.43
2018-02-20T13:00:19.719Z,32.70
2018-02-20T13:02:47.500Z,30.27
2018-02-20T13:05:15.187Z,29.10
2018-02-20T13:07:43.662Z,25.80
2018-02-20T13:10:11.331Z,28.83
2018-02-20T13:12:39.804Z,33.20
2018-02-20T13:15:08.240Z,38.50
2018-02-20T13:17:35.944Z,36.40
2018-02-20T13:20:04.387Z,35.43
2018-02-20T13:22:32.091Z,39.23
2018-02-20T13:25:00.522Z,31.70
2018-02-20T13:27:28.236Z,35.37
2018-02-20T13:29:55.895Z,36.37
2018-02-20T13:32:23.602Z,35.83
2018-02-20T13:34:51.267Z,33.10
2018-02-20T13:37:18.971Z,35.73
2018-02-20T13:39:47.410Z,30.03
2018-02-20T13:42:15.102Z,36.60
2018-02-20T13:44:43.526Z,36.20
2018-02-20T13:47:11.271Z,31.73
2018-02-20T13:49:38.929Z,34.27
2018-02-20T13:52:06.640Z,35.73
2018-02-20T13:54:34.302Z,34.60
2018-02-20T13:57:02.016Z,30.47
2018-02-20T13:59:29.679Z,30.67
2018-02-20T14:01:57.382Z,34.23
2018-02-20T14:04:25.052Z,37.60
2018-02-20T14:06:53.519Z,36.83
2018-02-20T14:09:21.179Z,39.73
2018-02-20T14:11:48.891Z,32.27
2018-02-20T14:14:16.556Z,31.80
2018-02-20T14:16:44.263Z,28.53
2018-02-20T14:19:11.923Z,32.30
2018-02-20T14:21:40.395Z,31.40
2018-02-20T14:24:08.065Z,36.13
2018-02-20T14:26:36.550Z,34.60
2018-02-20T14:29:04.974Z,35.17
2018-02-20T14:31:32.745Z,31.47
2018-02-20T14:34:00.410Z,38.20
2018-02-20T14:36:28.140Z,32.83
2018-02-20T14:38:55.852Z,35.10
2018-02-20T14:41:23.523Z,31.70
2018-02-20T14:43:52.029Z,35.13
2018-02-20T14:46:19.690Z,37.20
2018-02-20T14:48:47.403Z,35.60
2018-02-20T14:51:15.071Z,33.97
2018-02-20T14:53:42.788Z,38.57
2018-02-20T14:56:10.451Z,34.97
2018-02-20T14:58:38.159Z,32.30
2018-02-20T15:01:06.591Z,34.60
2018-02-20T15:03:34.299Z,40.90
2018-02-20T15:06:02.755Z,37.93
2018-02-20T15:08:30.464Z,39.37
2018-02-20T15:10:58.127Z,36.30
2018-02-20T15:13:25.831Z,40.37
2018-02-20T15:15:53.498Z,36.20
2018-02-20T15:18:21.198Z,35.13
2018-02-20T15:20:48.872Z,39.47
2018-02-20T15:23:16.635Z,38.83
2018-02-20T15:25:44.305Z,38.13
2018-02-20T15:28:11.976Z,37.77
2018-02-20T15:30:39.682Z,41.63
2018-02-20T15:33:08.115Z,35.87
2018-02-20T15:35:35.818Z,33.60
2018-02-20T15:38:04.256Z,39.60
2018-02-20T15:40:31.961Z,35.60
2018-02-20T15:42:59.632Z,40.10
2018-02-20T15:45:27.339Z,42.43
2018-02-20T15:47:55.006Z,44.27
2018-02-20T15:50:22.722Z,37.50
2018-02-20T15:52:50.387Z,37.73
2018-02-20T15:55:18.108Z,44.17
2018-02-20T15:57:46.243Z,33.90
2018-02-20T16:00:13.951Z,37.33
2018-02-20T16:02:42.398Z,36.53
2018-02-20T16:05:10.120Z,38.47
2018-02-20T16:07:37.867Z,33.23
2018-02-20T16:10:05.612Z,42.67
2018-02-20T16:12:34.034Z,63.67
2018-02-20T16:15:01.743Z,34.50
2018-02-20T16:17:30.226Z,38.47
2018-02-20T16:19:58.663Z,33.53
2018-02-20T16:22:26.376Z,31.77
2018-02-20T16:24:54.044Z,40.27
2018-02-20T16:27:21.752Z,83.43
2018-02-20T16:29:49.414Z,39.80
2018-02-20T16:32:17.123Z,70.97
2018-02-20T16:34:44.792Z,46.63
2018-02-20T16:37:12.498Z,33.77
2018-02-20T16:39:40.179Z,35.30
2018-02-20T16:42:08.653Z,32.60
2018-02-20T16:44:37.084Z,34.33
2018-02-20T16:47:04.800Z,33.83
2018-02-20T16:49:33.236Z,36.67
2018-02-20T16:52:00.976Z,43.00
2018-02-20T16:54:28.681Z,188.33
2018-02-20T16:56:57.146Z,54.27
2018-02-20T16:59:25.196Z,90.47
2018-02-20T17:01:53.803Z,49.43
2018-02-20T17:04:21.511Z,49.67
2018-02-20T17:06:49.179Z,60.97
2018-02-20T17:09:16.892Z,117.23
2018-02-20T17:11:45.331Z,75.03
2018-02-20T17:14:13.066Z,54.30
2018-02-20T17:16:40.741Z,37.03
2018-02-20T17:19:08.442Z,35.07
2018-02-20T17:21:36.210Z,86.00
2018-02-20T17:24:03.860Z,38.93
2018-02-20T17:26:31.539Z,42.60
2018-02-20T17:29:00.022Z,53.43
2018-02-20T17:31:27.708Z,54.37
2018-02-20T17:33:55.418Z,35.77
2018-02-20T17:36:23.088Z,37.53
2018-02-20T17:38:51.568Z,39.60
2018-02-20T17:41:20.000Z,39.00
2018-02-20T17:43:47.711Z,34.40
2018-02-20T17:46:16.151Z,41.10
2018-02-20T17:48:43.863Z,35.83
2018-02-20T17:51:11.798Z,34.70
2018-02-20T17:53:39.528Z,34.10
2018-02-20T17:56:07.208Z,38.00
2018-02-20T17:58:34.925Z,37.00
2018-02-20T18:01:02.612Z,48.83
2018-02-20T18:03:30.331Z,42.63
2018-02-20T18:05:58.003Z,50.80
2018-02-20T18:08:25.712Z,69.23
2018-02-20T18:10:53.374Z,45.90
2018-02-20T18:13:21.084Z,35.23
2018-02-20T18:15:48.756Z,38.20
2018-02-20T18:18:16.471Z,38.63
2018-02-20T18:20:44.899Z,40.17
2018-02-20T18:23:12.603Z,37.17
2018-02-20T18:25:40.267Z,35.07
2018-02-20T18:28:08.748Z,39.57
2018-02-20T18:30:37.174Z,39.27
2018-02-20T18:33:04.889Z,34.67
2018-02-20T18:35:33.329Z,42.23
2018-02-20T18:38:01.035Z,33.77
2018-02-20T18:40:28.698Z,39.97
2018-02-20T18:42:56.411Z,34.93
2018-02-20T18:45:24.097Z,34.03
2018-02-20T18:47:52.588Z,41.03
2018-02-20T18:50:21.032Z,39.50
2018-02-20T18:52:48.761Z,41.60
2018-02-20T18:55:16.428Z,34.23
2018-02-20T18:57:44.098Z,37.47
2018-02-20T19:00:11.827Z,36.37
2018-02-20T19:02:39.507Z,28.57
2018-02-20T19:05:07.216Z,34.23
2018-02-20T19:07:35.656Z,39.87
2018-02-20T19:10:03.392Z,36.50
2018-02-20T19:12:31.068Z,43.77
2018-02-20T19:14:58.770Z,31.30
2018-02-20T19:17:27.221Z,32.27
2018-02-20T19:19:54.931Z,36.23
2018-02-20T19:22:22.603Z,40.83
2018-02-20T19:24:50.330Z,40.50
2018-02-20T19:27:18.775Z,36.20
2018-02-20T19:29:46.496Z,43.37
2018-02-20T19:32:14.227Z,38.17
2018-02-20T19:34:45.549Z,35.73
2018-02-20T19:37:13.232Z,42.80
2018-02-20T19:39:40.955Z,43.17
2018-02-20T19:42:08.656Z,38.53
2018-02-20T19:44:37.143Z,37.90
2018-02-20T19:47:05.600Z,47.00
2018-02-20T19:49:33.324Z,44.23
2018-02-20T19:52:01.018Z,39.40
2018-02-20T19:54:28.784Z,41.83
2018-02-20T19:56:57.240Z,39.30
2018-02-20T19:59:24.967Z,53.50
2018-02-20T20:01:52.639Z,39.47
2018-02-20T20:04:20.364Z,45.70
2018-02-20T20:06:48.819Z,41.27
2018-02-20T20:09:16.568Z,44.80
2018-02-20T20:11:44.261Z,46.47
2018-02-20T20:14:12.744Z,44.07
2018-02-20T20:16:41.246Z,39.20
2018-02-20T20:19:08.995Z,41.17
2018-02-20T20:21:36.667Z,51.90
2018-02-20T20:24:05.156Z,44.87
2018-02-20T20:26:32.837Z,45.00
2018-02-20T20:29:00.681Z,48.40
2018-02-20T20:31:28.397Z,49.43
2018-02-20T20:33:56.896Z,52.97
2018-02-20T20:36:24.564Z,47.63
2018-02-20T20:38:52.262Z,45.07
2018-02-20T20:41:19.943Z,46.40
2018-02-20T20:43:47.652Z,42.90
2018-02-20T20:46:15.408Z,46.37
2018-02-20T20:48:43.118Z,48.53
2018-02-20T20:51:11.563Z,45.90
2018-02-20T20:53:39.319Z,47.60
2018-02-20T20:56:06.989Z,46.23
2018-02-20T20:58:34.696Z,49.23
2018-02-20T21:01:03.142Z,44.70
2018-02-20T21:03:30.859Z,42.07
2018-02-20T21:05:58.526Z,53.97
2018-02-20T21:08:26.236Z,46.67
2018-02-20T21:10:53.903Z,51.50
2018-02-20T21:13:21.615Z,49.40
2018-02-20T21:15:49.299Z,42.73
2018-02-20T21:18:16.979Z,53.87
2018-02-20T21:20:44.688Z,49.40
2018-02-20T21:23:12.355Z,57.70
2018-02-20T21:25:40.063Z,50.53
2018-02-20T21:28:07.730Z,55.63
2018-02-20T21:30:36.250Z,52.20
2018-02-20T21:33:03.920Z,50.40
2018-02-20T21:35:31.627Z,49.90
2018-02-20T21:38:00.077Z,56.20
2018-02-20T21:40:27.811Z,50.53
2018-02-20T21:42:55.483Z,60.67
2018-02-20T21:45:23.210Z,61.80
2018-02-20T21:47:50.887Z,55.40
2018-02-20T21:50:18.598Z,54.80
2018-02-20T21:52:46.276Z,55.90
2018-02-20T21:55:14.760Z,55.10
2018-02-20T21:57:43.195Z,54.13
2018-02-20T22:00:10.906Z,61.07
2018-02-20T22:02:38.588Z,51.83
2018-02-20T22:05:06.298Z,54.67
2018-02-20T22:07:33.965Z,52.97
2018-02-20T22:10:02.467Z,56.47
2018-02-20T22:12:30.152Z,54.43
2018-02-20T22:14:57.863Z,58.17
2018-02-20T22:17:26.303Z,59.53
2018-02-20T22:19:54.017Z,59.50
2018-02-20T22:22:22.455Z,52.60
2018-02-20T22:24:50.179Z,61.37
2018-02-20T22:27:17.851Z,56.00
2018-02-20T22:29:45.563Z,54.73
2018-02-20T22:32:13.990Z,55.03
2018-02-20T22:34:41.697Z,58.37
2018-02-20T22:37:10.134Z,62.13
2018-02-20T22:39:37.845Z,64.33
2018-02-20T22:42:06.277Z,58.87
2018-02-20T22:44:33.988Z,59.77
2018-02-20T22:47:02.433Z,50.70
2018-02-20T22:49:30.150Z,58.87
2018-02-20T22:51:57.820Z,55.63
2018-02-20T22:54:25.539Z,55.37
2018-02-20T22:56:53.979Z,56.60
2018-02-20T22:59:21.692Z,64.53
2018-02-20T23:01:49.364Z,63.60
2018-02-20T23:04:17.087Z,58.90
2018-02-20T23:06:45.533Z,58.53
2018-02-20T23:09:13.268Z,69.83
2018-02-20T23:11:47.762Z,68.50
2018-02-20T23:14:16.251Z,71.87
2018-02-20T23:16:43.922Z,61.63
2018-02-20T23:19:11.690Z,56.93
2018-02-20T23:21:39.407Z,61.37
2018-02-20T23:24:07.838Z,60.67
2018-02-20T23:26:35.550Z,63.00
2018-02-20T23:29:03.985Z,57.13
2018-02-20T23:31:31.693Z,67.80
2018-02-20T23:34:00.129Z,70.07
2018-02-20T23:36:27.848Z,66.40
2018-02-20T23:38:55.528Z,64.93
2018-02-20T23:41:23.239Z,59.87
2018-02-20T23:43:50.898Z,59.13
2018-02-20T23:46:18.596Z,65.77
2018-02-20T23:48:46.263Z,58.30
2018-02-20T23:51:19.562Z,62.70
2018-02-20T23:53:47.221Z,62.67
2018-02-20T23:56:14.935Z,64.87
2018-02-20T23:58:43.375Z,60.77
